Time;durP1;ratioP1;P1;durP2;ratioP2;P2;SDS_P1;SDS_P2;PMS_P1;PMS_P2;Temp;Humidity;BMP_temperature;BMP_pressure;BME280_temperature;BME280_humidity;BME280_pressure;Samples;Min_cycle;Max_cycle;Signal;HPM_P1;HPM_P2
2023/05/04 00:02:01;;;;;;;14.80;6.80;;;;;;;;;;5054420;27;96029;-65
2023/05/04 00:04:27;;;;;;;13.63;6.78;;;;;;;;;;5047958;27;93391;-65
2023/05/04 00:06:53;;;;;;;10.63;6.35;;;;;;;;;;5047686;27;92569;-65
2023/05/04 00:09:20;;;;;;;13.30;6.93;;;;;;;;;;5041363;27;94166;-65
2023/05/04 00:11:46;;;;;;;15.10;7.03;;;;;;;;;;5037758;27;94714;-65
2023/05/04 00:14:12;;;;;;;14.93;7.32;;;;;;;;;;5038800;27;92443;-65
2023/05/04 00:16:39;;;;;;;12.30;7.20;;;;;;;;;;5049093;27;93078;-65
2023/05/04 00:19:06;;;;;;;12.27;7.57;;;;;;;;;;4999694;28;94091;-65
2023/05/04 00:21:32;;;;;;;10.57;6.95;;;;;;;;;;5050287;27;93626;-65
2023/05/04 00:23:58;;;;;;;11.15;6.70;;;;;;;;;;5052768;27;96877;-65
2023/05/04 00:26:24;;;;;;;15.45;7.65;;;;;;;;;;5028705;27;92990;-65
2023/05/04 00:28:51;;;;;;;18.08;7.15;;;;;;;;;;5052393;27;94210;-65
2023/05/04 00:31:17;;;;;;;8.82;6.65;;;;;;;;;;5051026;27;94461;-65
2023/05/04 00:33:44;;;;;;;11.68;7.00;;;;;;;;;;5034392;28;92551;-65
2023/05/04 00:36:12;;;;;;;12.70;7.85;;;;;;;;;;5033792;27;93520;-65
2023/05/04 00:38:46;;;;;;;10.85;7.38;;;;;;;;;;5033595;27;93668;-65
2023/05/04 00:41:13;;;;;;;13.15;7.30;;;;;;;;;;5037416;28;91685;-65
2023/05/04 00:43:39;;;;;;;13.43;7.07;;;;;;;;;;5016979;28;94369;-65
2023/05/04 00:46:05;;;;;;;11.43;6.93;;;;;;;;;;5033173;28;94417;-65
2023/05/04 00:48:31;;;;;;;11.18;7.53;;;;;;;;;;5032656;28;95080;-65
2023/05/04 00:50:58;;;;;;;12.43;6.82;;;;;;;;;;5033660;28;94268;-65
2023/05/04 00:53:24;;;;;;;10.73;7.10;;;;;;;;;;5033750;27;92663;-65
2023/05/04 00:55:51;;;;;;;10.90;7.00;;;;;;;;;;5034374;28;94307;-65
2023/05/04 00:58:17;;;;;;;16.52;7.32;;;;;;;;;;5033580;27;93592;-65
2023/05/04 01:00:43;;;;;;;15.77;7.18;;;;;;;;;;5033702;27;92907;-64
2023/05/04 01:03:10;;;;;;;14.32;6.70;;;;;;;;;;5038903;27;92382;-64
2023/05/04 01:05:40;;;;;;;10.85;7.13;;;;;;;;;;5042227;27;93376;-64
2023/05/04 01:08:07;;;;;;;;;;;;;;;;;;5057354;27;92623;-64
2023/05/04 01:10:38;;;;;;;12.55;7.25;;;;;;;;;;5049366;27;124191;-64
2023/05/04 01:13:08;;;;;;;13.15;7.82;;;;;;;;;;5049850;27;95229;-64
2023/05/04 01:15:35;;;;;;;11.93;7.30;;;;;;;;;;5036983;28;95679;-64
2023/05/04 01:18:01;;;;;;;9.60;6.93;;;;;;;;;;5035426;27;93415;-64
2023/05/04 01:20:28;;;;;;;10.82;6.82;;;;;;;;;;5053920;27;92416;-64
2023/05/04 01:22:55;;;;;;;9.63;7.18;;;;;;;;;;5059345;27;93100;-64
2023/05/04 01:25:22;;;;;;;17.25;6.75;;;;;;;;;;5046132;27;92475;-64
2023/05/04 01:27:48;;;;;;;13.13;6.95;;;;;;;;;;5048597;27;93368;-64
2023/05/04 01:30:19;;;;;;;9.77;6.68;;;;;;;;;;5037025;27;95350;-65
2023/05/04 01:32:46;;;;;;;16.13;7.32;;;;;;;;;;5051746;27;92535;-64
2023/05/04 01:35:12;;;;;;;17.40;7.82;;;;;;;;;;5035226;27;93141;-64
2023/05/04 01:37:39;;;;;;;11.20;7.15;;;;;;;;;;5042851;27;96825;-64
2023/05/04 01:40:06;;;;;;;11.00;6.25;;;;;;;;;;5055249;27;93293;-64
2023/05/04 01:42:32;;;;;;;11.18;7.18;;;;;;;;;;5049146;27;94394;-64
2023/05/04 01:45:00;;;;;;;14.60;6.93;;;;;;;;;;5042135;27;93820;-64
2023/05/04 01:47:26;;;;;;;16.38;7.35;;;;;;;;;;5031289;27;94177;-64
2023/05/04 01:49:52;;;;;;;11.02;6.95;;;;;;;;;;5016205;28;93589;-64
2023/05/04 01:52:19;;;;;;;14.13;7.47;;;;;;;;;;5048134;27;92759;-64
2023/05/04 01:54:45;;;;;;;13.48;6.65;;;;;;;;;;5053235;27;93201;-65
2023/05/04 01:57:11;;;;;;;12.95;7.43;;;;;;;;;;5049741;27;94842;-64
2023/05/04 01:59:37;;;;;;;13.10;6.68;;;;;;;;;;5055026;27;92602;-64
2023/05/04 02:02:04;;;;;;;10.35;6.30;;;;;;;;;;5048884;27;94862;-64
2023/05/04 02:04:30;;;;;;;14.52;7.22;;;;;;;;;;5055800;27;93401;-65
2023/05/04 02:06:56;;;;;;;19.00;6.93;;;;;;;;;;5047390;27;92479;-65
2023/05/04 02:09:23;;;;;;;12.07;6.05;;;;;;;;;;5034882;27;93457;-64
2023/05/04 02:11:49;;;;;;;11.60;7.03;;;;;;;;;;5040524;27;93227;-64
2023/05/04 02:14:15;;;;;;;15.02;6.53;;;;;;;;;;5043941;27;92990;-64
2023/05/04 02:16:42;;;;;;;22.13;5.95;;;;;;;;;;5050948;27;93546;-65
2023/05/04 02:19:08;;;;;;;11.05;6.47;;;;;;;;;;5049449;27;91817;-64
2023/05/04 02:21:34;;;;;;;11.55;6.72;;;;;;;;;;5054444;27;92484;-64
2023/05/04 02:24:01;;;;;;;9.15;6.25;;;;;;;;;;5051656;27;94475;-65
2023/05/04 02:26:27;;;;;;;13.48;6.95;;;;;;;;;;5024990;27;94978;-64
2023/05/04 02:28:53;;;;;;;9.15;6.88;;;;;;;;;;5018408;28;96153;-64
2023/05/04 02:31:20;;;;;;;12.95;6.70;;;;;;;;;;5019406;27;92616;-65
2023/05/04 02:33:46;;;;;;;9.95;6.28;;;;;;;;;;5037649;27;93331;-65
2023/05/04 02:36:12;;;;;;;11.18;6.50;;;;;;;;;;5035782;27;93183;-65
2023/05/04 02:38:38;;;;;;;9.63;6.72;;;;;;;;;;5036276;28;92450;-64
2023/05/04 02:41:05;;;;;;;15.02;6.90;;;;;;;;;;5036208;28;94227;-64
2023/05/04 02:43:31;;;;;;;13.20;6.70;;;;;;;;;;5045625;27;92638;-64
2023/05/04 02:45:57;;;;;;;10.60;6.40;;;;;;;;;;5044727;27;92427;-64
2023/05/04 02:48:24;;;;;;;16.38;6.82;;;;;;;;;;5042503;27;93203;-64
2023/05/04 02:50:50;;;;;;;13.68;7.10;;;;;;;;;;5057696;27;97178;-64
2023/05/04 02:53:17;;;;;;;8.95;6.50;;;;;;;;;;5055019;27;95699;-64
2023/05/04 02:55:43;;;;;;;10.20;6.43;;;;;;;;;;5055273;27;94489;-64
2023/05/04 02:58:10;;;;;;;10.23;6.10;;;;;;;;;;5053015;27;92819;-64
2023/05/04 03:00:36;;;;;;;9.73;6.47;;;;;;;;;;5034611;27;94185;-65
2023/05/04 03:03:02;;;;;;;13.43;6.72;;;;;;;;;;5044596;27;94380;-65
2023/05/04 03:05:29;;;;;;;8.43;6.85;;;;;;;;;;5037622;27;92450;-64
2023/05/04 03:07:55;;;;;;;12.05;6.93;;;;;;;;;;5045518;27;93194;-65
2023/05/04 03:10:21;;;;;;;9.40;6.72;;;;;;;;;;5028797;28;94319;-65
2023/05/04 03:12:48;;;;;;;10.55;6.03;;;;;;;;;;5044098;27;92435;-65
2023/05/04 03:15:14;;;;;;;11.98;6.80;;;;;;;;;;5036465;27;95978;-65
2023/05/04 03:17:40;;;;;;;10.73;6.50;;;;;;;;;;5039365;27;93153;-65
2023/05/04 03:20:08;;;;;;;13.27;6.18;;;;;;;;;;5035051;28;93262;-66
2023/05/04 03:22:34;;;;;;;12.32;6.88;;;;;;;;;;5048169;27;93950;-65
2023/05/04 03:25:01;;;;;;;11.73;6.47;;;;;;;;;;5054440;27;92460;-65
2023/05/04 03:27:27;;;;;;;10.18;6.80;;;;;;;;;;5007636;28;93222;-65
2023/05/04 03:29:53;;;;;;;19.00;6.82;;;;;;;;;;5025542;27;93333;-65
2023/05/04 03:32:20;;;;;;;12.52;6.90;;;;;;;;;;5053605;27;92191;-65
2023/05/04 03:34:46;;;;;;;12.10;6.43;;;;;;;;;;5038206;27;93820;-65
2023/05/04 03:37:12;;;;;;;10.50;6.70;;;;;;;;;;5035146;28;92389;-65
2023/05/04 03:39:39;;;;;;;15.15;7.00;;;;;;;;;;5046159;27;94919;-65
2023/05/04 03:42:05;;;;;;;14.20;7.07;;;;;;;;;;5052487;27;93727;-65
2023/05/04 03:44:31;;;;;;;11.63;6.95;;;;;;;;;;5054905;27;92487;-65
2023/05/04 03:46:57;;;;;;;12.18;6.93;;;;;;;;;;5047124;27;94103;-65
2023/05/04 03:49:24;;;;;;;11.65;6.55;;;;;;;;;;5035309;27;94472;-65
2023/05/04 03:51:50;;;;;;;12.43;7.13;;;;;;;;;;5038959;27;92576;-65
2023/05/04 03:54:16;;;;;;;11.52;6.90;;;;;;;;;;5057435;27;94341;-65
2023/05/04 03:56:43;;;;;;;9.20;6.85;;;;;;;;;;5036448;27;91716;-65
2023/05/04 03:59:09;;;;;;;13.15;7.18;;;;;;;;;;5052099;27;93515;-65
2023/05/04 04:01:36;;;;;;;12.80;6.93;;;;;;;;;;5037081;27;93859;-65
2023/05/04 04:04:02;;;;;;;15.93;7.32;;;;;;;;;;5032156;27;96832;-65
2023/05/04 04:06:29;;;;;;;12.52;6.45;;;;;;;;;;5016723;27;95533;-66
2023/05/04 04:08:56;;;;;;;11.55;7.35;;;;;;;;;;5017858;27;93461;-65
2023/05/04 04:11:22;;;;;;;10.48;6.60;;;;;;;;;;5033356;27;92697;-65
2023/05/04 04:13:48;;;;;;;11.20;6.53;;;;;;;;;;5021576;27;94250;-64
2023/05/04 04:16:15;;;;;;;11.70;6.90;;;;;;;;;;5034958;27;93411;-65
2023/05/04 04:18:41;;;;;;;20.50;7.28;;;;;;;;;;5031952;27;93481;-66
2023/05/04 04:21:09;;;;;;;13.20;7.07;;;;;;;;;;5032667;27;93045;-65
2023/05/04 04:23:35;;;;;;;11.02;7.15;;;;;;;;;;5034151;27;92432;-65
2023/05/04 04:26:04;;;;;;;31.55;7.82;;;;;;;;;;5015141;27;94388;-64
2023/05/04 04:28:31;;;;;;;18.10;7.47;;;;;;;;;;5031508;27;94834;-64
2023/05/04 04:30:58;;;;;;;11.57;7.35;;;;;;;;;;5032027;27;92496;-65
2023/05/04 04:33:24;;;;;;;11.82;7.10;;;;;;;;;;5028676;27;94113;-64
2023/05/04 04:35:52;;;;;;;19.08;7.90;;;;;;;;;;5031540;27;93841;-65
2023/05/04 04:38:18;;;;;;;11.45;7.85;;;;;;;;;;5036394;28;92386;-64
2023/05/04 04:40:44;;;;;;;11.50;7.60;;;;;;;;;;5045043;27;94513;-64
2023/05/04 04:43:11;;;;;;;18.95;6.90;;;;;;;;;;5034222;27;92671;-64
2023/05/04 04:45:38;;;;;;;14.65;7.57;;;;;;;;;;5033965;27;94527;-67
2023/05/04 04:48:04;;;;;;;13.57;7.70;;;;;;;;;;5033279;27;94907;-65
2023/05/04 04:50:31;;;;;;;12.93;7.80;;;;;;;;;;5042669;27;92542;-65
2023/05/04 04:52:57;;;;;;;17.77;7.38;;;;;;;;;;5033299;27;94861;-65
2023/05/04 04:55:24;;;;;;;14.88;7.07;;;;;;;;;;5017488;28;93417;-65
2023/05/04 04:57:51;;;;;;;14.82;7.78;;;;;;;;;;5034078;27;92444;-65
2023/05/04 05:00:18;;;;;;;11.52;7.10;;;;;;;;;;5036478;28;93133;-65
2023/05/04 05:02:44;;;;;;;12.15;7.40;;;;;;;;;;5034371;28;92467;-65
2023/05/04 05:05:11;;;;;;;16.67;7.20;;;;;;;;;;5033542;27;94486;-65
2023/05/04 05:07:38;;;;;;;13.52;7.57;;;;;;;;;;5037080;27;94349;-65
2023/05/04 05:10:04;;;;;;;13.20;7.93;;;;;;;;;;5034294;28;91702;-64
2023/05/04 05:12:31;;;;;;;15.23;7.70;;;;;;;;;;5045364;27;92501;-64
2023/05/04 05:14:57;;;;;;;13.13;7.70;;;;;;;;;;5041169;27;93333;-64
2023/05/04 05:17:24;;;;;;;13.57;7.85;;;;;;;;;;5031115;27;94927;-65
2023/05/04 05:19:51;;;;;;;15.48;8.27;;;;;;;;;;5053754;27;95999;-65
2023/05/04 05:22:17;;;;;;;12.80;7.97;;;;;;;;;;5051455;27;92507;-65
2023/05/04 05:24:43;;;;;;;14.57;7.72;;;;;;;;;;5052987;27;94242;-65
2023/05/04 05:27:10;;;;;;;11.77;7.82;;;;;;;;;;5053672;27;93470;-65
2023/05/04 05:29:37;;;;;;;16.63;7.88;;;;;;;;;;5051582;27;92486;-65
2023/05/04 05:32:03;;;;;;;18.35;8.20;;;;;;;;;;5048503;27;93263;-65
2023/05/04 05:34:30;;;;;;;15.77;7.90;;;;;;;;;;5053341;27;93575;-64
2023/05/04 05:36:57;;;;;;;19.08;9.13;;;;;;;;;;5052500;27;92874;-65
2023/05/04 05:39:23;;;;;;;11.68;8.50;;;;;;;;;;5046332;27;94397;-65
2023/05/04 05:41:49;;;;;;;13.77;9.02;;;;;;;;;;5046809;27;96964;-65
2023/05/04 05:44:16;;;;;;;14.77;8.65;;;;;;;;;;5045305;27;94212;-64
2023/05/04 05:46:42;;;;;;;17.17;8.15;;;;;;;;;;5036163;27;93535;-64
2023/05/04 05:49:09;;;;;;;13.13;8.73;;;;;;;;;;5035255;27;92445;-64
2023/05/04 05:51:35;;;;;;;15.15;8.20;;;;;;;;;;5037107;27;94791;-65
2023/05/04 05:54:01;;;;;;;20.90;8.27;;;;;;;;;;5055905;27;93420;-64
2023/05/04 05:56:28;;;;;;;20.70;8.20;;;;;;;;;;5056186;27;92399;-65
2023/05/04 05:58:54;;;;;;;14.55;8.88;;;;;;;;;;5057687;27;94161;-65
2023/05/04 06:01:21;;;;;;;16.48;8.77;;;;;;;;;;5046618;27;94882;-65
2023/05/04 06:03:47;;;;;;;19.42;8.77;;;;;;;;;;5057607;27;92545;-65
2023/05/04 06:06:14;;;;;;;18.30;8.48;;;;;;;;;;5068723;27;96011;-65
2023/05/04 06:08:40;;;;;;;13.25;8.73;;;;;;;;;;5048376;27;92576;-65
2023/05/04 06:11:07;;;;;;;25.38;8.95;;;;;;;;;;5066503;27;93506;-65
2023/05/04 06:13:33;;;;;;;20.67;9.35;;;;;;;;;;5067026;27;93554;-65
2023/05/04 06:15:59;;;;;;;17.95;8.18;;;;;;;;;;5068463;27;92444;-65
2023/05/04 06:18:26;;;;;;;15.35;8.48;;;;;;;;;;5036308;27;93169;-65
2023/05/04 06:20:58;;;;;;;14.40;8.77;;;;;;;;;;5059138;27;93334;-65
2023/05/04 06:23:26;;;;;;;16.58;7.85;;;;;;;;;;5067438;27;91715;-65
2023/05/04 06:25:52;;;;;;;21.75;8.25;;;;;;;;;;5072062;27;92501;-65
2023/05/04 06:28:18;;;;;;;15.40;8.75;;;;;;;;;;5060060;27;93181;-67
2023/05/04 06:30:44;;;;;;;16.35;8.27;;;;;;;;;;5074206;27;94864;-65
2023/05/04 06:33:11;;;;;;;14.27;8.60;;;;;;;;;;5074199;27;93524;-64
2023/05/04 06:35:37;;;;;;;13.10;8.15;;;;;;;;;;5061030;27;93755;-66
2023/05/04 06:38:04;;;;;;;15.45;8.32;;;;;;;;;;5055663;27;94226;-64
2023/05/04 06:40:30;;;;;;;12.55;8.38;;;;;;;;;;5063365;27;93224;-64
2023/05/04 06:42:56;;;;;;;13.07;7.95;;;;;;;;;;5075424;27;92486;-64
2023/05/04 06:45:23;;;;;;;13.55;7.95;;;;;;;;;;5072698;27;93155;-64
2023/05/04 06:47:49;;;;;;;12.30;8.55;;;;;;;;;;5059318;27;92479;-64
2023/05/04 06:50:15;;;;;;;16.92;8.25;;;;;;;;;;5056338;27;92442;-64
2023/05/04 06:52:43;;;;;;;18.95;7.90;;;;;;;;;;5055749;27;93438;-64
2023/05/04 06:55:09;;;;;;;24.15;9.13;;;;;;;;;;5061004;27;94968;-65
2023/05/04 06:57:35;;;;;;;19.55;9.05;;;;;;;;;;5060884;27;96725;-64
2023/05/04 07:00:03;;;;;;;13.07;8.48;;;;;;;;;;5053763;27;93409;-65
2023/05/04 07:02:29;;;;;;;18.23;7.63;;;;;;;;;;5037565;27;92828;-64
2023/05/04 07:04:56;;;;;;;13.38;8.23;;;;;;;;;;5041401;27;93172;-65
2023/05/04 07:07:22;;;;;;;16.27;7.90;;;;;;;;;;5055614;27;94431;-66
2023/05/04 07:09:49;;;;;;;15.88;7.80;;;;;;;;;;5078010;27;94196;-64
2023/05/04 07:12:15;;;;;;;18.08;8.50;;;;;;;;;;5074730;27;92690;-65
2023/05/04 07:14:41;;;;;;;17.48;7.82;;;;;;;;;;5065764;27;92439;-65
2023/05/04 07:17:11;;;;;;;18.05;8.48;;;;;;;;;;5066136;27;94532;-65
2023/05/04 07:19:37;;;;;;;14.63;8.13;;;;;;;;;;5057414;27;95786;-64
2023/05/04 07:22:03;;;;;;;16.80;8.18;;;;;;;;;;5062002;27;92430;-64
2023/05/04 07:24:30;;;;;;;13.80;7.50;;;;;;;;;;5058750;27;94214;-66
2023/05/04 07:26:56;;;;;;;17.48;7.72;;;;;;;;;;5055454;27;93404;-65
2023/05/04 07:29:22;;;;;;;13.52;8.43;;;;;;;;;;5058424;27;92474;-65
2023/05/04 07:31:49;;;;;;;16.42;8.10;;;;;;;;;;5051367;27;94464;-65
2023/05/04 07:34:15;;;;;;;12.07;7.38;;;;;;;;;;5054650;27;92500;-65
2023/05/04 07:36:41;;;;;;;17.55;7.78;;;;;;;;;;5056263;27;93143;-65
2023/05/04 07:39:08;;;;;;;13.85;7.25;;;;;;;;;;5056614;27;93369;-65
2023/05/04 07:41:35;;;;;;;10.82;7.43;;;;;;;;;;5055602;27;92772;-65
2023/05/04 07:44:04;;;;;;;11.23;7.13;;;;;;;;;;5053540;27;94880;-66
2023/05/04 07:46:30;;;;;;;11.27;7.43;;;;;;;;;;5053301;27;94590;-64
2023/05/04 07:48:57;;;;;;;14.60;7.68;;;;;;;;;;5047458;27;96044;-64
2023/05/04 07:51:23;;;;;;;23.73;7.90;;;;;;;;;;5058844;27;94243;-65
2023/05/04 07:53:50;;;;;;;24.30;7.55;;;;;;;;;;5070707;27;93957;-65
2023/05/04 07:56:16;;;;;;;13.48;7.25;;;;;;;;;;5070320;27;93280;-65
2023/05/04 07:58:43;;;;;;;21.63;8.30;;;;;;;;;;5042401;27;93487;-65
2023/05/04 08:01:09;;;;;;;15.93;7.57;;;;;;;;;;5064552;27;91822;-65
2023/05/04 08:03:35;;;;;;;11.32;7.32;;;;;;;;;;5071395;27;92511;-68
2023/05/04 08:06:02;;;;;;;14.73;7.47;;;;;;;;;;5063067;27;93457;-65
2023/05/04 08:08:28;;;;;;;14.70;7.75;;;;;;;;;;5028125;27;94888;-64
2023/05/04 08:10:54;;;;;;;11.20;7.88;;;;;;;;;;5021321;27;96622;-65
2023/05/04 08:13:33;;;;;;;22.92;8.43;;;;;;;;;;5036915;27;93389;-65
2023/05/04 08:16:00;;;;;;;16.77;7.93;;;;;;;;;;5033986;28;93667;-65
2023/05/04 08:18:27;;;;;;;8.80;6.40;;;;;;;;;;5015469;27;93644;-65
2023/05/04 08:20:53;;;;;;;10.93;7.72;;;;;;;;;;5048264;27;92894;-65
2023/05/04 08:23:20;;;;;;;12.13;6.55;;;;;;;;;;5053059;27;93129;-65
2023/05/04 08:25:46;;;;;;;14.48;7.07;;;;;;;;;;5037462;27;93802;-65
2023/05/04 08:28:12;;;;;;;10.35;6.75;;;;;;;;;;5050690;27;92602;-65
2023/05/04 08:30:39;;;;;;;18.80;7.30;;;;;;;;;;5043267;27;93454;-65
2023/05/04 08:33:06;;;;;;;16.13;7.30;;;;;;;;;;5051318;27;96999;-64
2023/05/04 08:35:32;;;;;;;12.05;6.82;;;;;;;;;;5057201;27;92557;-65
2023/05/04 08:38:00;;;;;;;9.88;6.32;;;;;;;;;;5051056;27;92578;-65
2023/05/04 08:40:26;;;;;;;16.77;6.63;;;;;;;;;;5049606;27;92922;-65
2023/05/04 08:42:53;;;;;;;15.70;6.53;;;;;;;;;;5039527;27;94074;-66
2023/05/04 08:45:20;;;;;;;16.85;6.35;;;;;;;;;;5039199;27;94497;-65
2023/05/04 08:47:46;;;;;;;11.23;6.50;;;;;;;;;;5045834;27;92598;-65
2023/05/04 08:50:13;;;;;;;15.02;6.82;;;;;;;;;;5033307;27;94108;-65
2023/05/04 08:52:45;;;;;;;8.88;6.03;;;;;;;;;;5037878;27;93621;-65
2023/05/04 08:55:11;;;;;;;11.57;5.82;;;;;;;;;;5050216;27;92452;-65
2023/05/04 08:57:39;;;;;;;10.45;5.97;;;;;;;;;;5053887;27;94869;-66
2023/05/04 09:00:05;;;;;;;12.05;6.38;;;;;;;;;;5034696;27;92991;-65
2023/05/04 09:02:32;;;;;;;15.63;6.10;;;;;;;;;;5037745;27;92986;-65
2023/05/04 09:05:00;;;;;;;20.90;6.03;;;;;;;;;;5036719;27;94594;-66
2023/05/04 09:07:26;;;;;;;12.68;5.82;;;;;;;;;;5032085;27;92601;-65
2023/05/04 09:09:53;;;;;;;11.55;6.13;;;;;;;;;;5032710;28;93615;-65
2023/05/04 09:12:19;;;;;;;17.95;5.97;;;;;;;;;;5031141;27;94544;-65
2023/05/04 09:14:46;;;;;;;16.58;5.63;;;;;;;;;;5032529;28;91741;-65
2023/05/04 09:17:13;;;;;;;15.65;5.47;;;;;;;;;;5032032;27;94504;-65
2023/05/04 09:19:43;;;;;;;11.05;5.57;;;;;;;;;;5033698;27;94334;-65
2023/05/04 09:22:13;;;;;;;12.30;5.68;;;;;;;;;;5027618;27;94903;-66
2023/05/04 09:24:39;;;;;;;10.55;5.50;;;;;;;;;;5035889;28;93609;-66
2023/05/04 09:27:12;;;;;;;12.32;5.32;;;;;;;;;;5035195;27;92566;-66
2023/05/04 09:29:41;;;;;;;18.38;5.38;;;;;;;;;;5031849;27;94006;-65
2023/05/04 09:32:13;;;;;;;15.00;5.40;;;;;;;;;;5036450;28;93388;-67
2023/05/04 09:34:50;;;;;;;11.95;4.70;;;;;;;;;;5036784;28;92428;-66
2023/05/04 09:37:17;;;;;;;10.50;4.78;;;;;;;;;;5036302;27;93169;-66
2023/05/04 09:39:49;;;;;;;14.20;5.30;;;;;;;;;;5038596;27;92830;-66
2023/05/04 09:42:17;;;;;;;9.15;4.90;;;;;;;;;;5037067;28;93608;-65
2023/05/04 09:44:43;;;;;;;8.35;3.95;;;;;;;;;;5040714;27;93563;-66
2023/05/04 09:47:10;;;;;;;15.38;5.00;;;;;;;;;;5032382;27;94960;-66
2023/05/04 09:49:36;;;;;;;7.95;4.93;;;;;;;;;;5032717;27;96656;-66
2023/05/04 09:52:04;;;;;;;10.13;4.45;;;;;;;;;;5032414;27;93529;-65
2023/05/04 09:54:33;;;;;;;9.70;4.82;;;;;;;;;;5043216;27;92640;-67
2023/05/04 09:57:04;;;;;;;11.45;3.80;;;;;;;;;;5026019;27;92847;-65
2023/05/04 09:59:31;;;;;;;5.78;3.13;;;;;;;;;;5015893;28;93304;-66
2023/05/04 10:01:58;;;;;;;5.53;3.03;;;;;;;;;;5026732;27;92463;-65
2023/05/04 10:04:39;;;;;;;7.88;3.03;;;;;;;;;;5033944;27;92788;-66
2023/05/04 10:07:06;;;;;;;15.60;3.10;;;;;;;;;;5044311;27;94616;-68
2023/05/04 10:09:32;;;;;;;10.75;3.30;;;;;;;;;;5046838;27;93006;-68
2023/05/04 10:12:05;;;;;;;30.63;3.80;;;;;;;;;;5043206;27;96719;-65
2023/05/04 10:14:34;;;;;;;8.45;3.22;;;;;;;;;;5031683;27;92479;-65
2023/05/04 10:17:06;;;;;;;4.28;3.22;;;;;;;;;;5038155;27;93068;-64
2023/05/04 10:19:42;;;;;;;5.32;3.60;;;;;;;;;;5033288;27;93454;-66
2023/05/04 10:22:27;;;;;;;6.45;3.10;;;;;;;;;;5031624;27;93790;-67
2023/05/04 10:25:06;;;;;;;8.93;3.05;;;;;;;;;;5047488;27;93185;-64
2023/05/04 10:27:41;;;;;;;7.55;3.05;;;;;;;;;;5050662;27;94106;-66
2023/05/04 10:30:09;;;;;;;7.20;3.58;;;;;;;;;;5044358;27;93196;-65
2023/05/04 10:32:38;;;;;;;8.20;3.75;;;;;;;;;;5049183;27;93493;-65
2023/05/04 10:35:05;;;;;;;7.10;3.30;;;;;;;;;;5040742;27;93537;-65
2023/05/04 10:37:32;;;;;;;7.90;3.60;;;;;;;;;;5038304;27;96179;-65
2023/05/04 10:39:58;;;;;;;14.60;3.97;;;;;;;;;;5024988;27;93389;-65
2023/05/04 10:42:25;;;;;;;10.18;3.38;;;;;;;;;;5051584;27;92489;-65
2023/05/04 10:44:55;;;;;;;8.50;3.38;;;;;;;;;;5040770;27;93267;-65
2023/05/04 10:47:21;;;;;;;;;;;;;;;;;;5047250;27;94364;-65
2023/05/04 10:49:48;;;;;;;12.05;3.58;;;;;;;;;;5042878;27;123305;-65
2023/05/04 10:52:15;;;;;;;6.05;3.38;;;;;;;;;;5048025;27;93415;-65
2023/05/04 10:54:42;;;;;;;9.38;3.70;;;;;;;;;;5056103;27;91747;-64
2023/05/04 10:57:15;;;;;;;11.63;3.67;;;;;;;;;;5033240;27;92705;-65
2023/05/04 10:59:52;;;;;;;9.07;3.22;;;;;;;;;;5035788;28;94436;-65
2023/05/04 11:02:22;;;;;;;9.10;4.07;;;;;;;;;;5040485;27;94933;-64
2023/05/04 11:05:03;;;;;;;6.22;3.60;;;;;;;;;;5056039;27;96934;-65
2023/05/04 11:07:37;;;;;;;7.72;3.40;;;;;;;;;;5035954;27;93140;-64
2023/05/04 11:10:04;;;;;;;8.02;3.53;;;;;;;;;;5039422;28;92388;-65
2023/05/04 11:12:31;;;;;;;10.63;3.40;;;;;;;;;;5033902;27;93455;-65
2023/05/04 11:15:04;;;;;;;10.07;3.63;;;;;;;;;;5033278;27;92518;-65
2023/05/04 11:17:31;;;;;;;7.22;4.13;;;;;;;;;;5038989;27;94771;-63
2023/05/04 11:19:59;;;;;;;15.93;4.20;;;;;;;;;;5042552;27;93853;-66
2023/05/04 11:22:26;;;;;;;6.25;4.10;;;;;;;;;;5052284;27;92451;-63
2023/05/04 11:24:52;;;;;;;12.75;4.90;;;;;;;;;;5057514;27;93144;-63
2023/05/04 11:27:24;;;;;;;9.88;4.82;;;;;;;;;;5036480;27;94804;-64
2023/05/04 11:30:00;;;;;;;12.50;4.10;;;;;;;;;;5038289;27;92627;-64
2023/05/04 11:32:33;;;;;;;8.55;4.40;;;;;;;;;;5042752;27;93209;-64
2023/05/04 11:35:00;;;;;;;6.68;4.38;;;;;;;;;;5036582;28;92643;-64
2023/05/04 11:37:28;;;;;;;8.38;4.68;;;;;;;;;;5034923;27;93110;-63
2023/05/04 11:39:55;;;;;;;7.72;4.40;;;;;;;;;;5038587;27;94546;-63
2023/05/04 11:42:21;;;;;;;8.05;3.92;;;;;;;;;;5039582;27;93919;-64
2023/05/04 11:44:48;;;;;;;9.80;4.45;;;;;;;;;;5052384;28;92934;-65
2023/05/04 11:47:15;;;;;;;7.57;3.75;;;;;;;;;;5048350;27;92847;-63
2023/05/04 11:49:42;;;;;;;6.78;4.22;;;;;;;;;;5049322;27;92503;-65
2023/05/04 11:52:09;;;;;;;10.05;4.03;;;;;;;;;;5050224;27;96531;-65
2023/05/04 11:54:38;;;;;;;12.60;5.00;;;;;;;;;;5053669;27;92477;-65
2023/05/04 11:57:04;;;;;;;6.68;4.80;;;;;;;;;;5043265;27;94424;-65
2023/05/04 11:59:30;;;;;;;9.63;4.53;;;;;;;;;;5032145;27;92497;-64
2023/05/04 12:01:57;;;;;;;10.65;4.88;;;;;;;;;;5046955;27;92574;-64
2023/05/04 12:04:29;;;;;;;13.52;5.30;;;;;;;;;;5040521;27;94507;-64
2023/05/04 12:06:55;;;;;;;7.75;5.28;;;;;;;;;;5054988;27;93746;-65
2023/05/04 12:09:22;;;;;;;8.50;4.95;;;;;;;;;;5056987;27;92192;-64
2023/05/04 12:11:57;;;;;;;11.07;5.90;;;;;;;;;;5061900;27;92489;-65
2023/05/04 12:14:27;;;;;;;12.38;5.55;;;;;;;;;;5062237;27;94079;-65
2023/05/04 12:16:53;;;;;;;12.48;5.80;;;;;;;;;;5055666;27;95446;-65
2023/05/04 12:19:20;;;;;;;11.43;5.50;;;;;;;;;;5051807;27;93762;-65
2023/05/04 12:21:52;;;;;;;10.38;5.50;;;;;;;;;;5061350;27;92661;-65
2023/05/04 12:24:22;;;;;;;9.20;5.43;;;;;;;;;;5064171;27;94040;-65
2023/05/04 12:26:49;;;;;;;12.85;5.22;;;;;;;;;;5057976;27;94181;-65
2023/05/04 12:29:15;;;;;;;13.45;5.15;;;;;;;;;;5057655;27;92729;-66
2023/05/04 12:31:42;;;;;;;19.08;5.85;;;;;;;;;;5053216;27;93259;-66
2023/05/04 12:34:08;;;;;;;8.85;4.72;;;;;;;;;;5055680;27;92094;-65
2023/05/04 12:36:34;;;;;;;11.38;5.47;;;;;;;;;;5062865;27;92557;-66
2023/05/04 12:39:01;;;;;;;23.88;5.90;;;;;;;;;;5054706;27;94183;-66
2023/05/04 12:41:27;;;;;;;10.02;5.57;;;;;;;;;;5052890;27;94972;-66
2023/05/04 12:43:54;;;;;;;10.48;5.28;;;;;;;;;;5056451;27;95278;-65
2023/05/04 12:46:21;;;;;;;12.13;5.30;;;;;;;;;;5054162;27;93638;-65
2023/05/04 12:48:47;;;;;;;12.02;6.10;;;;;;;;;;5065219;27;93380;-66
2023/05/04 12:51:14;;;;;;;21.80;6.78;;;;;;;;;;5060426;27;93068;-66
2023/05/04 12:53:41;;;;;;;11.02;6.38;;;;;;;;;;5055565;27;94170;-66
2023/05/04 12:56:07;;;;;;;8.25;6.07;;;;;;;;;;5060369;27;92873;-65
2023/05/04 12:58:34;;;;;;;16.35;5.85;;;;;;;;;;5078034;27;94206;-65
2023/05/04 13:01:00;;;;;;;11.05;6.35;;;;;;;;;;5063142;27;92543;-65
2023/05/04 13:03:26;;;;;;;15.75;6.55;;;;;;;;;;5071055;27;94251;-66
2023/05/04 13:05:53;;;;;;;12.25;6.30;;;;;;;;;;5062347;27;95918;-66
2023/05/04 13:08:19;;;;;;;12.38;6.57;;;;;;;;;;5049255;27;93382;-65
2023/05/04 13:10:46;;;;;;;10.80;5.82;;;;;;;;;;5055215;27;93243;-65
2023/05/04 13:13:14;;;;;;;25.08;6.82;;;;;;;;;;5053160;27;94415;-65
2023/05/04 13:15:42;;;;;;;17.35;7.03;;;;;;;;;;5056155;27;92796;-65
2023/05/04 13:18:08;;;;;;;13.02;6.32;;;;;;;;;;5035662;27;94453;-65
2023/05/04 13:20:34;;;;;;;15.38;5.82;;;;;;;;;;5042149;27;94400;-66
2023/05/04 13:23:01;;;;;;;10.23;6.93;;;;;;;;;;5037305;28;93196;-65
2023/05/04 13:25:27;;;;;;;12.50;7.03;;;;;;;;;;5049854;27;93694;-65
2023/05/04 13:27:53;;;;;;;15.07;7.88;;;;;;;;;;5054475;27;93099;-65
2023/05/04 13:30:20;;;;;;;9.30;7.13;;;;;;;;;;5051594;27;94931;-66
2023/05/04 13:32:47;;;;;;;11.45;6.60;;;;;;;;;;5056782;27;93476;-66
2023/05/04 13:35:14;;;;;;;12.13;7.10;;;;;;;;;;5043650;27;93868;-66
2023/05/04 13:37:41;;;;;;;11.93;6.68;;;;;;;;;;5049696;27;92509;-66
2023/05/04 13:40:07;;;;;;;10.02;6.97;;;;;;;;;;5032331;27;94599;-66
2023/05/04 13:42:34;;;;;;;13.45;6.85;;;;;;;;;;5049752;27;92775;-66
2023/05/04 13:45:02;;;;;;;15.68;8.10;;;;;;;;;;5034058;27;93473;-66
2023/05/04 13:47:29;;;;;;;14.15;8.77;;;;;;;;;;5036617;28;91771;-66
2023/05/04 13:49:55;;;;;;;15.57;8.07;;;;;;;;;;5038621;27;95129;-65
2023/05/04 13:52:22;;;;;;;13.82;7.43;;;;;;;;;;5043686;27;92453;-64
2023/05/04 13:54:48;;;;;;;13.65;6.72;;;;;;;;;;5048549;27;95029;-66
2023/05/04 13:57:15;;;;;;;22.52;7.22;;;;;;;;;;5046183;27;95715;-66
2023/05/04 13:59:41;;;;;;;15.13;6.65;;;;;;;;;;5047312;27;94353;-66
2023/05/04 14:02:23;;;;;;;22.48;7.30;;;;;;;;;;5038040;27;92598;-66
2023/05/04 14:04:50;;;;;;;23.70;6.97;;;;;;;;;;5032878;27;92635;-66
2023/05/04 14:07:16;;;;;;;11.90;6.45;;;;;;;;;;5054166;27;92479;-68
2023/05/04 14:09:43;;;;;;;10.98;6.82;;;;;;;;;;5035161;27;94340;-66
2023/05/04 14:12:09;;;;;;;20.85;7.55;;;;;;;;;;5035434;27;92824;-64
2023/05/04 14:14:35;;;;;;;12.40;6.75;;;;;;;;;;5030160;27;95063;-64
2023/05/04 14:17:02;;;;;;;15.27;6.57;;;;;;;;;;5029703;27;94141;-65
2023/05/04 14:19:28;;;;;;;15.10;7.22;;;;;;;;;;5037984;27;95889;-64
2023/05/04 14:21:54;;;;;;;13.85;6.60;;;;;;;;;;5040889;27;93829;-65
2023/05/04 14:24:22;;;;;;;11.90;6.53;;;;;;;;;;5055705;27;94217;-66
2023/05/04 14:26:48;;;;;;;14.52;6.78;;;;;;;;;;5036052;27;92466;-65
2023/05/04 14:29:15;;;;;;;11.55;7.03;;;;;;;;;;5046217;27;95678;-65
2023/05/04 14:31:41;;;;;;;11.00;6.63;;;;;;;;;;5035120;27;93217;-67
2023/05/04 14:34:08;;;;;;;9.23;6.00;;;;;;;;;;5032024;27;92598;-65